createdAt,value
2019-03-15T00:00:37.588Z,7.11
2019-03-15T00:03:06.814Z,7.08
2019-03-15T00:05:36.171Z,7.14
2019-03-15T00:08:06.417Z,7.25
2019-03-15T00:10:35.708Z,7.27
2019-03-15T00:13:05.007Z,7.17
2019-03-15T00:15:34.241Z,7.13
2019-03-15T00:18:03.812Z,6.98
2019-03-15T00:20:33.132Z,6.99
2019-03-15T00:23:02.378Z,6.94
2019-03-15T00:25:31.697Z,6.93
2019-03-15T00:28:00.924Z,6.95
2019-03-15T00:30:30.249Z,7.00
2019-03-15T00:32:59.551Z,6.96
2019-03-15T00:35:28.899Z,7.02
2019-03-15T00:37:58.144Z,7.09
2019-03-15T00:40:27.387Z,7.05
2019-03-15T00:42:56.878Z,7.10
2019-03-15T00:45:26.101Z,7.10
2019-03-15T00:47:55.395Z,7.08
2019-03-15T00:50:24.688Z,7.13
2019-03-15T00:52:53.963Z,7.20
2019-03-15T00:55:23.624Z,7.20
2019-03-15T00:57:53.737Z,7.19
2019-03-15T01:00:23.069Z,7.14
2019-03-15T01:02:52.370Z,7.24
2019-03-15T01:05:21.625Z,7.23
2019-03-15T01:07:51.307Z,7.16
2019-03-15T01:10:20.976Z,7.17
2019-03-15T01:12:51.077Z,7.20
2019-03-15T01:15:20.563Z,7.22
2019-03-15T01:17:49.933Z,7.23
2019-03-15T01:20:19.591Z,7.18
2019-03-15T01:22:48.964Z,7.21
2019-03-15T01:25:18.695Z,7.20
2019-03-15T01:27:47.923Z,7.18
2019-03-15T01:30:17.306Z,7.19
2019-03-15T01:32:46.595Z,7.25
2019-03-15T01:35:15.951Z,7.18
2019-03-15T01:37:45.317Z,7.23
2019-03-15T01:40:14.985Z,7.24
2019-03-15T01:42:44.264Z,7.16
2019-03-15T01:45:13.673Z,7.20
2019-03-15T01:47:43.578Z,7.15
2019-03-15T01:50:12.902Z,7.18
2019-03-15T01:52:42.326Z,7.17
2019-03-15T01:55:11.705Z,7.12
2019-03-15T01:57:41.077Z,7.12
2019-03-15T02:00:11.456Z,7.18
2019-03-15T02:02:40.711Z,7.18
2019-03-15T02:05:10.553Z,7.25
2019-03-15T02:07:39.964Z,7.23
2019-03-15T02:10:09.319Z,7.34
2019-03-15T02:12:39.128Z,7.29
2019-03-15T02:15:09.296Z,7.35
2019-03-15T02:17:38.611Z,7.39
2019-03-15T02:20:08.562Z,7.42
2019-03-15T02:22:40.406Z,7.44
2019-03-15T02:25:10.134Z,7.41
2019-03-15T02:27:39.919Z,7.49
2019-03-15T02:30:10.371Z,7.55
2019-03-15T02:32:40.232Z,7.44
2019-03-15T02:35:09.894Z,7.42
2019-03-15T02:37:39.444Z,7.53
2019-03-15T02:40:08.797Z,7.47
2019-03-15T02:42:38.428Z,7.46
2019-03-15T02:45:08.432Z,7.41
2019-03-15T02:47:38.062Z,7.31
2019-03-15T02:50:07.515Z,7.17
2019-03-15T02:52:36.973Z,7.07
2019-03-15T02:55:06.904Z,6.98
2019-03-15T02:57:36.071Z,6.90
2019-03-15T03:00:05.804Z,6.88
2019-03-15T03:02:35.472Z,6.83
2019-03-15T03:05:04.943Z,6.75
2019-03-15T03:07:34.334Z,6.78
2019-03-15T03:10:04.105Z,6.81
2019-03-15T03:12:33.399Z,6.81
2019-03-15T03:15:02.728Z,6.81
2019-03-15T03:17:32.147Z,6.85
2019-03-15T03:20:01.462Z,6.97
2019-03-15T03:22:30.933Z,6.88
2019-03-15T03:25:00.379Z,7.00
2019-03-15T03:27:29.670Z,6.94
2019-03-15T03:29:58.936Z,6.96
2019-03-15T03:32:28.293Z,6.89
2019-03-15T03:34:57.743Z,6.82
2019-03-15T03:37:27.019Z,6.84
2019-03-15T03:39:56.316Z,6.84
2019-03-15T03:42:25.660Z,6.77
2019-03-15T03:44:54.969Z,6.75
2019-03-15T03:47:24.303Z,6.73
2019-03-15T03:49:53.770Z,6.72
2019-03-15T03:52:23.015Z,6.66
2019-03-15T03:54:52.327Z,6.64
2019-03-15T03:57:21.690Z,6.61
2019-03-15T03:59:51.314Z,6.67
2019-03-15T04:02:20.703Z,6.65
2019-03-15T04:04:50.137Z,6.58
2019-03-15T04:07:19.510Z,6.55
2019-03-15T04:09:48.818Z,6.51
2019-03-15T04:12:18.663Z,6.51
2019-03-15T04:14:48.300Z,6.52
2019-03-15T04:17:17.657Z,6.52
2019-03-15T04:19:46.969Z,6.46
2019-03-15T04:22:16.177Z,6.55
2019-03-15T04:24:45.933Z,6.61
2019-03-15T04:27:15.174Z,6.62
2019-03-15T04:29:44.568Z,6.65
2019-03-15T04:32:13.874Z,6.59
2019-03-15T04:34:43.236Z,6.55
2019-03-15T04:37:12.607Z,6.43
2019-03-15T04:39:42.367Z,6.40
2019-03-15T04:42:11.685Z,6.47
2019-03-15T04:44:41.350Z,6.39
2019-03-15T04:47:10.684Z,6.37
2019-03-15T04:49:40.023Z,6.41
2019-03-15T04:52:09.370Z,6.41
2019-03-15T04:54:39.262Z,6.44
2019-03-15T04:57:08.601Z,6.43
2019-03-15T04:59:38.211Z,6.43
2019-03-15T05:02:09.349Z,6.44
2019-03-15T05:04:38.575Z,6.44
2019-03-15T05:07:08.053Z,6.37
2019-03-15T05:09:37.538Z,6.42
2019-03-15T05:12:07.208Z,6.46
2019-03-15T05:14:37.872Z,6.54
2019-03-15T05:17:07.667Z,6.63
2019-03-15T05:19:37.111Z,6.62
2019-03-15T05:22:06.477Z,6.73
2019-03-15T05:24:35.848Z,6.71
2019-03-15T05:27:05.514Z,6.75
2019-03-15T05:29:34.887Z,6.75
2019-03-15T05:32:04.212Z,6.81
2019-03-15T05:34:33.451Z,6.81
2019-03-15T05:37:03.309Z,6.88
2019-03-15T05:39:32.608Z,6.95
2019-03-15T05:42:02.001Z,7.07
2019-03-15T05:44:31.434Z,7.10
2019-03-15T05:47:01.662Z,7.06
2019-03-15T05:49:31.430Z,7.07
2019-03-15T05:52:00.788Z,7.01
2019-03-15T05:54:30.189Z,7.01
2019-03-15T05:56:59.599Z,6.99
2019-03-15T05:59:29.533Z,7.05
2019-03-15T06:01:58.913Z,7.11
2019-03-15T06:04:28.884Z,7.07
2019-03-15T06:06:58.510Z,7.17
2019-03-15T06:09:27.840Z,7.30
2019-03-15T06:11:57.378Z,7.88
2019-03-15T06:14:27.752Z,8.41
2019-03-15T06:16:57.110Z,8.69
2019-03-15T06:19:26.330Z,8.79
2019-03-15T06:21:57.546Z,9.44
2019-03-15T06:24:27.180Z,9.69
2019-03-15T06:26:56.484Z,9.59
2019-03-15T06:29:26.003Z,9.05
2019-03-15T06:31:55.264Z,8.92
2019-03-15T06:34:24.917Z,8.60
2019-03-15T06:36:54.228Z,8.28
2019-03-15T06:39:23.526Z,8.09
2019-03-15T06:41:53.710Z,8.11
2019-03-15T06:44:23.127Z,8.24
2019-03-15T06:46:52.470Z,8.75
2019-03-15T06:49:21.838Z,9.13
2019-03-15T06:51:51.059Z,9.66
2019-03-15T06:54:20.479Z,10.29
2019-03-15T06:56:49.787Z,10.74
2019-03-15T06:59:19.344Z,10.36
2019-03-15T07:01:48.756Z,10.58
2019-03-15T07:04:18.044Z,10.48
2019-03-15T07:06:47.623Z,10.31
2019-03-15T07:09:17.010Z,10.19
2019-03-15T07:11:46.560Z,10.73
2019-03-15T07:14:16.068Z,11.38
2019-03-15T07:16:45.445Z,10.89
2019-03-15T07:19:25.633Z,10.62
2019-03-15T07:21:47.037Z,10.51
2019-03-15T07:24:25.079Z,10.25
2019-03-15T07:26:50.838Z,10.34
2019-03-15T07:29:20.361Z,10.23
2019-03-15T07:31:49.761Z,10.23
2019-03-15T07:34:19.314Z,9.86
2019-03-15T07:36:48.701Z,9.90
2019-03-15T07:39:18.683Z,9.75
2019-03-15T07:41:48.492Z,10.15
2019-03-15T07:44:17.855Z,10.24
2019-03-15T07:46:47.302Z,10.08
2019-03-15T07:49:18.059Z,10.10
2019-03-15T07:51:50.221Z,10.06
2019-03-15T07:54:19.444Z,10.09
2019-03-15T07:56:49.546Z,9.90
2019-03-15T07:59:18.796Z,9.72
2019-03-15T08:01:48.212Z,9.51
2019-03-15T08:04:20.714Z,9.30
2019-03-15T08:06:50.327Z,9.35
2019-03-15T08:09:19.754Z,9.23
2019-03-15T08:11:49.101Z,9.25
2019-03-15T08:14:19.048Z,9.36
2019-03-15T08:16:49.011Z,9.42
2019-03-15T08:19:18.313Z,9.51
2019-03-15T08:21:49.322Z,9.48
2019-03-15T08:24:19.161Z,9.43
2019-03-15T08:26:49.118Z,9.57
2019-03-15T08:29:18.665Z,9.66
2019-03-15T08:31:47.942Z,9.54
2019-03-15T08:34:17.295Z,9.46
2019-03-15T08:36:46.555Z,9.41
2019-03-15T08:39:16.139Z,9.48
2019-03-15T08:41:45.399Z,9.53
2019-03-15T08:44:17.198Z,9.59
2019-03-15T08:46:51.352Z,9.66
2019-03-15T08:49:20.762Z,9.64
2019-03-15T08:52:03.121Z,9.56
2019-03-15T08:54:23.241Z,9.81
2019-03-15T08:56:52.944Z,9.64
2019-03-15T08:59:22.241Z,9.53
2019-03-15T09:01:52.976Z,9.60
2019-03-15T09:04:27.786Z,9.68
2019-03-15T09:07:00.497Z,9.81
2019-03-15T09:09:29.851Z,9.84
2019-03-15T09:11:59.214Z,10.09
2019-03-15T09:14:28.468Z,9.93
2019-03-15T09:16:58.083Z,9.95
2019-03-15T09:19:27.591Z,10.00
2019-03-15T09:22:00.324Z,10.24
2019-03-15T09:24:27.894Z,10.37
2019-03-15T09:26:57.217Z,10.52
2019-03-15T09:29:28.436Z,10.37
2019-03-15T09:32:05.481Z,10.60
2019-03-15T09:34:28.991Z,10.48
2019-03-15T09:36:58.284Z,10.58
2019-03-15T09:39:27.554Z,10.13
2019-03-15T09:41:56.833Z,10.27
2019-03-15T09:44:28.543Z,10.53
2019-03-15T09:46:57.821Z,10.41
2019-03-15T09:49:27.159Z,10.79
2019-03-15T09:51:56.734Z,11.13
2019-03-15T09:54:26.481Z,11.09
2019-03-15T09:56:55.724Z,10.95
2019-03-15T09:59:25.018Z,10.95
2019-03-15T10:01:56.754Z,10.93
2019-03-15T10:04:26.321Z,11.14
2019-03-15T10:06:57.803Z,11.49
2019-03-15T10:09:30.423Z,11.50
2019-03-15T10:11:59.920Z,11.76
2019-03-15T10:14:29.554Z,11.95
2019-03-15T10:16:58.986Z,11.78
2019-03-15T10:19:29.752Z,12.02
2019-03-15T10:22:01.971Z,12.03
2019-03-15T10:24:31.610Z,11.68
2019-03-15T10:27:00.899Z,11.09
2019-03-15T10:29:30.289Z,11.02
2019-03-15T10:32:01.099Z,10.73
2019-03-15T10:34:35.683Z,10.51
2019-03-15T10:37:06.193Z,10.31
2019-03-15T10:39:35.439Z,9.90
2019-03-15T10:42:04.805Z,9.93
2019-03-15T10:44:35.425Z,9.96
2019-03-15T10:47:07.263Z,9.93
2019-03-15T10:49:36.601Z,9.98
2019-03-15T10:52:05.846Z,10.43
2019-03-15T10:54:35.137Z,10.30
2019-03-15T10:57:04.426Z,10.10
2019-03-15T10:59:33.905Z,10.22
2019-03-15T11:02:03.363Z,10.46
2019-03-15T11:04:32.605Z,10.45
2019-03-15T11:07:01.896Z,10.35
2019-03-15T11:09:34.740Z,10.56
2019-03-15T11:12:04.047Z,10.28
2019-03-15T11:14:33.639Z,10.57
2019-03-15T11:17:02.939Z,10.46
2019-03-15T11:19:32.202Z,10.33
2019-03-15T11:22:11.654Z,10.09
2019-03-15T11:24:43.563Z,10.13
2019-03-15T11:27:11.962Z,10.09
2019-03-15T11:29:41.220Z,10.14
2019-03-15T11:32:17.168Z,10.23
2019-03-15T11:34:47.698Z,10.02
2019-03-15T11:37:17.308Z,10.04
2019-03-15T11:39:46.630Z,10.05
2019-03-15T11:42:15.923Z,10.22
2019-03-15T11:44:45.167Z,10.52
2019-03-15T11:47:14.514Z,10.29
2019-03-15T11:49:43.790Z,10.32
2019-03-15T11:52:13.020Z,10.42
2019-03-15T11:54:42.421Z,10.07
2019-03-15T11:57:11.675Z,9.97
2019-03-15T11:59:40.959Z,10.03
2019-03-15T12:02:10.823Z,10.20
2019-03-15T12:04:40.416Z,10.20
2019-03-15T12:07:10.520Z,10.27
2019-03-15T12:09:41.122Z,10.00
2019-03-15T12:12:10.529Z,9.87
2019-03-15T12:14:41.272Z,9.71
2019-03-15T12:17:11.427Z,9.77
2019-03-15T12:19:40.681Z,9.61
2019-03-15T12:22:09.966Z,9.85
2019-03-15T12:24:39.202Z,9.48
2019-03-15T12:27:08.597Z,9.58
2019-03-15T12:29:37.834Z,9.51
2019-03-15T12:32:09.399Z,9.57
2019-03-15T12:34:38.703Z,9.62
2019-03-15T12:37:07.988Z,9.76
2019-03-15T12:39:37.257Z,9.79
2019-03-15T12:42:06.599Z,9.90
2019-03-15T12:44:35.963Z,10.13
2019-03-15T12:47:06.310Z,9.86
2019-03-15T12:49:35.683Z,9.66
2019-03-15T12:52:05.555Z,9.70
2019-03-15T12:54:34.821Z,9.53
2019-03-15T12:57:04.448Z,9.49
2019-03-15T12:59:33.823Z,9.36
2019-03-15T13:02:03.815Z,9.33
2019-03-15T13:04:33.155Z,9.32
2019-03-15T13:07:02.414Z,9.16
2019-03-15T13:09:31.738Z,9.27
2019-03-15T13:12:01.076Z,9.19
2019-03-15T13:14:30.347Z,9.15
2019-03-15T13:16:59.666Z,9.03
2019-03-15T13:19:29.397Z,9.24
2019-03-15T13:22:00.001Z,9.14
2019-03-15T13:24:29.313Z,9.11
2019-03-15T13:27:07.697Z,9.18
2019-03-15T13:29:34.948Z,9.32
2019-03-15T13:32:07.895Z,9.32
2019-03-15T13:34:37.296Z,9.44
2019-03-15T13:37:06.608Z,9.50
2019-03-15T13:39:37.542Z,9.44
2019-03-15T13:42:07.222Z,9.63
2019-03-15T13:44:36.709Z,9.61
2019-03-15T13:47:06.103Z,9.55
2019-03-15T13:49:35.479Z,9.59
2019-03-15T13:52:07.844Z,9.77
2019-03-15T13:54:38.081Z,9.76
2019-03-15T13:57:20.292Z,9.68
2019-03-15T13:59:38.505Z,9.84
2019-03-15T14:02:08.160Z,9.87
2019-03-15T14:04:38.008Z,9.99
2019-03-15T14:07:08.251Z,10.11
2019-03-15T14:09:37.613Z,10.20
2019-03-15T14:12:07.054Z,10.16
2019-03-15T14:14:36.426Z,10.18
2019-03-15T14:17:05.765Z,10.22
2019-03-15T14:19:35.050Z,10.31
2019-03-15T14:22:06.172Z,10.32
2019-03-15T14:24:35.652Z,10.38
2019-03-15T14:27:05.331Z,10.36
2019-03-15T14:29:34.922Z,10.55
2019-03-15T14:32:06.680Z,10.57
2019-03-15T14:34:35.364Z,10.60
2019-03-15T14:37:04.793Z,10.56
2019-03-15T14:39:34.128Z,10.63
2019-03-15T14:42:03.913Z,10.59
2019-03-15T14:44:34.040Z,10.49
2019-03-15T14:47:03.758Z,10.65
2019-03-15T14:49:33.139Z,10.84
2019-03-15T14:52:02.498Z,10.70
2019-03-15T14:54:31.850Z,10.83
2019-03-15T14:57:01.188Z,10.93
2019-03-15T14:59:31.019Z,11.05
2019-03-15T15:02:01.491Z,11.07
2019-03-15T15:04:31.184Z,11.11
2019-03-15T15:07:00.607Z,11.25
2019-03-15T15:09:30.271Z,11.31
2019-03-15T15:11:59.601Z,11.44
2019-03-15T15:14:29.274Z,11.34
2019-03-15T15:16:58.579Z,11.22
2019-03-15T15:19:27.850Z,11.21
2019-03-15T15:21:57.155Z,11.22
2019-03-15T15:24:27.238Z,11.17
2019-03-15T15:26:56.712Z,11.36
2019-03-15T15:29:26.037Z,11.36
2019-03-15T15:31:55.333Z,11.48
2019-03-15T15:34:24.621Z,11.56
2019-03-15T15:36:53.956Z,11.58
2019-03-15T15:39:24.070Z,11.69
2019-03-15T15:41:53.611Z,11.61
2019-03-15T15:44:23.001Z,11.64
2019-03-15T15:46:52.302Z,11.69
2019-03-15T15:49:21.700Z,11.70
2019-03-15T15:51:50.984Z,11.71
2019-03-15T15:54:20.311Z,11.64
2019-03-15T15:56:50.974Z,11.65
2019-03-15T15:59:21.342Z,11.72
2019-03-15T16:01:50.660Z,11.73
2019-03-15T16:04:20.290Z,11.72
2019-03-15T16:06:49.967Z,11.71
2019-03-15T16:09:20.695Z,11.83
2019-03-15T16:11:49.976Z,11.68
2019-03-15T16:14:19.253Z,11.71
2019-03-15T16:16:49.069Z,11.73
2019-03-15T16:19:18.947Z,11.79
2019-03-15T16:21:48.246Z,11.91
2019-03-15T16:24:17.667Z,11.98
2019-03-15T16:26:46.924Z,12.08
2019-03-15T16:29:16.194Z,12.22
2019-03-15T16:31:45.463Z,12.29
2019-03-15T16:34:14.712Z,12.35
2019-03-15T16:36:44.098Z,12.30
2019-03-15T16:39:13.392Z,12.37
2019-03-15T16:41:42.754Z,12.39
2019-03-15T16:44:12.022Z,12.45
2019-03-15T16:46:41.357Z,12.44
2019-03-15T16:49:10.790Z,12.45
2019-03-15T16:51:40.080Z,12.51
2019-03-15T16:54:09.362Z,12.55
2019-03-15T16:56:38.898Z,12.48
2019-03-15T16:59:09.696Z,12.49
2019-03-15T17:01:39.226Z,12.66
2019-03-15T17:04:08.466Z,12.60
2019-03-15T17:06:37.840Z,12.54
2019-03-15T17:09:08.063Z,12.53
2019-03-15T17:11:37.380Z,12.65
2019-03-15T17:14:06.704Z,12.63
2019-03-15T17:16:36.052Z,12.44
2019-03-15T17:19:05.295Z,12.54
2019-03-15T17:21:34.616Z,12.49
2019-03-15T17:24:03.941Z,12.58
2019-03-15T17:26:33.550Z,12.50
2019-03-15T17:29:02.845Z,12.43
2019-03-15T17:31:33.560Z,12.36
2019-03-15T17:34:02.953Z,12.17
2019-03-15T17:36:32.239Z,12.07
2019-03-15T17:39:01.910Z,11.98
2019-03-15T17:41:31.253Z,11.79
2019-03-15T17:44:00.836Z,11.05
2019-03-15T17:46:30.150Z,10.25
2019-03-15T17:48:59.669Z,9.83
2019-03-15T17:51:31.822Z,9.56
2019-03-15T17:54:01.230Z,9.39
2019-03-15T17:56:30.484Z,9.37
2019-03-15T17:59:11.889Z,9.28
2019-03-15T18:01:31.016Z,9.18
2019-03-15T18:04:00.419Z,9.19
2019-03-15T18:06:32.650Z,9.16
2019-03-15T18:09:02.884Z,9.14
2019-03-15T18:11:32.181Z,9.12
2019-03-15T18:14:01.520Z,9.14
2019-03-15T18:16:30.822Z,9.18
2019-03-15T18:19:00.179Z,9.16
2019-03-15T18:21:31.987Z,9.25
2019-03-15T18:24:01.469Z,9.26
2019-03-15T18:26:30.903Z,9.28
2019-03-15T18:29:00.155Z,9.30
2019-03-15T18:31:29.750Z,9.28
2019-03-15T18:33:59.124Z,9.31
2019-03-15T18:36:31.019Z,9.39
2019-03-15T18:39:02.186Z,9.38
2019-03-15T18:41:32.171Z,9.35
2019-03-15T18:44:01.466Z,9.39
2019-03-15T18:46:33.114Z,9.42
2019-03-15T18:49:02.409Z,9.48
2019-03-15T18:51:33.351Z,9.55
2019-03-15T18:54:03.067Z,9.56
2019-03-15T18:56:32.404Z,9.64
2019-03-15T18:59:01.797Z,9.65
2019-03-15T19:01:31.788Z,9.73
2019-03-15T19:04:01.096Z,9.75
2019-03-15T19:06:33.240Z,9.83
2019-03-15T19:09:02.500Z,9.84
2019-03-15T19:11:31.873Z,9.75
2019-03-15T19:14:01.191Z,9.71
2019-03-15T19:16:30.866Z,9.72
2019-03-15T19:19:00.495Z,9.68
2019-03-15T19:24:58.904Z,9.66
2019-03-15T19:27:31.457Z,9.61
2019-03-15T19:30:00.742Z,9.59
2019-03-15T19:32:33.474Z,9.53
2019-03-15T19:35:02.188Z,9.62
2019-03-15T19:37:31.509Z,9.66
2019-03-15T19:40:00.853Z,9.62
2019-03-15T19:42:30.121Z,9.69
2019-03-15T19:44:59.558Z,9.65
2019-03-15T19:47:28.969Z,9.67
2019-03-15T19:49:58.550Z,9.67
2019-03-15T19:52:27.977Z,9.58
2019-03-15T19:55:00.649Z,9.51
2019-03-15T19:57:28.643Z,9.49
2019-03-15T20:00:07.462Z,9.42
2019-03-15T20:02:31.347Z,9.40
2019-03-15T20:05:01.398Z,9.31
2019-03-15T20:07:31.231Z,9.30
2019-03-15T20:10:01.504Z,9.28
2019-03-15T20:12:32.745Z,9.23
2019-03-15T20:15:02.192Z,9.10
2019-03-15T20:17:31.583Z,9.04
2019-03-15T20:20:01.825Z,8.95
2019-03-15T20:22:31.258Z,8.88
2019-03-15T20:25:02.498Z,8.83
2019-03-15T20:27:32.281Z,8.83
2019-03-15T20:30:01.668Z,8.83
2019-03-15T20:32:31.057Z,8.94
2019-03-15T20:35:00.452Z,9.06
2019-03-15T20:37:29.815Z,9.03
2019-03-15T20:39:59.176Z,9.01
2019-03-15T20:42:28.438Z,8.95
2019-03-15T20:44:57.707Z,8.96
2019-03-15T20:47:28.066Z,9.03
2019-03-15T20:49:58.335Z,9.07
2019-03-15T20:52:27.981Z,9.12
2019-03-15T20:54:59.799Z,9.10
2019-03-15T20:57:29.083Z,9.05
2019-03-15T20:59:58.414Z,8.99
2019-03-15T21:02:36.334Z,8.98
2019-03-15T21:05:08.191Z,8.98
2019-03-15T21:07:38.827Z,8.99
2019-03-15T21:10:10.918Z,8.98
2019-03-15T21:12:41.645Z,8.95
2019-03-15T21:15:11.715Z,9.04
2019-03-15T21:17:42.198Z,8.93
2019-03-15T21:20:12.371Z,8.99
2019-03-15T21:22:41.904Z,9.06
2019-03-15T21:25:11.972Z,9.11
2019-03-15T21:27:53.025Z,9.11
2019-03-15T21:30:14.925Z,9.06
2019-03-15T21:32:44.328Z,9.16
2019-03-15T21:35:14.121Z,9.14
2019-03-15T21:37:43.879Z,9.24
2019-03-15T21:40:14.364Z,9.11
2019-03-15T21:42:44.519Z,9.02
2019-03-15T21:45:19.302Z,8.95
2019-03-15T21:47:49.132Z,9.06
2019-03-15T21:50:18.671Z,9.01
2019-03-15T21:52:49.279Z,8.90
2019-03-15T21:55:18.865Z,8.91
2019-03-15T21:57:50.481Z,8.80
2019-03-15T22:00:20.010Z,8.88
2019-03-15T22:02:50.528Z,8.85
2019-03-15T22:05:20.032Z,8.84
2019-03-15T22:07:51.067Z,8.81
2019-03-15T22:10:20.821Z,8.75
2019-03-15T22:12:51.509Z,8.73
2019-03-15T22:15:21.739Z,8.73
2019-03-15T22:17:51.284Z,8.66
2019-03-15T22:20:22.179Z,8.66
2019-03-15T22:22:51.911Z,8.69
2019-03-15T22:25:22.066Z,8.66
2019-03-15T22:27:53.258Z,8.56
2019-03-15T22:30:22.733Z,8.43
2019-03-15T22:32:52.301Z,8.40
2019-03-15T22:35:21.747Z,8.44
2019-03-15T22:37:52.758Z,8.30
2019-03-15T22:40:23.890Z,8.18
2019-03-15T22:42:54.184Z,8.15
2019-03-15T22:45:23.668Z,8.11
2019-03-15T22:47:53.578Z,8.03
2019-03-15T22:50:23.959Z,8.04
2019-03-15T22:52:53.500Z,8.10
2019-03-15T22:55:22.939Z,8.10
2019-03-15T22:57:59.841Z,8.08
2019-03-15T23:00:30.606Z,8.04
2019-03-15T23:03:00.418Z,8.02
2019-03-15T23:05:30.868Z,8.11
2019-03-15T23:08:01.364Z,8.04
2019-03-15T23:10:31.771Z,8.17
2019-03-15T23:13:02.245Z,8.14
2019-03-15T23:15:32.004Z,8.11
2019-03-15T23:18:04.932Z,8.17
2019-03-15T23:20:37.606Z,8.11
2019-03-15T23:23:07.068Z,8.15
2019-03-15T23:25:40.009Z,8.14
2019-03-15T23:28:09.620Z,8.06
2019-03-15T23:30:39.138Z,8.07
2019-03-15T23:33:08.939Z,7.97
2019-03-15T23:35:53.050Z,7.89
2019-03-15T23:38:09.481Z,7.87
2019-03-15T23:40:44.343Z,7.87
2019-03-15T23:43:15.053Z,7.82
2019-03-15T23:45:45.140Z,7.80
2019-03-15T23:48:14.731Z,7.83
2019-03-15T23:50:44.327Z,7.77
2019-03-15T23:53:18.059Z,7.82
2019-03-15T23:55:50.413Z,7.80
2019-03-15T23:58:24.696Z,7.77
